createdAt,value
2023-07-03T00:01:23.072Z,101047.50
2023-07-03T00:03:53.089Z,101039.97
2023-07-03T00:06:19.929Z,101043.78
2023-07-03T00:08:46.527Z,101025.66
2023-07-03T00:11:13.125Z,101029.47
2023-07-03T00:13:39.594Z,101018.47
2023-07-03T00:16:06.441Z,101017.47
2023-07-03T00:18:33.126Z,101020.78
2023-07-03T00:20:59.816Z,101017.28
2023-07-03T00:23:26.993Z,101019.47
2023-07-03T00:25:53.840Z,101018.47
2023-07-03T00:28:20.893Z,101016.38
2023-07-03T00:30:47.388Z,101027.84
2023-07-03T00:33:14.028Z,101017.00
2023-07-03T00:35:40.745Z,101024.13
2023-07-03T00:38:07.799Z,101029.03
2023-07-03T00:40:34.404Z,101028.25
2023-07-03T00:43:01.963Z,101029.63
2023-07-03T00:45:29.421Z,101023.13
2023-07-03T00:47:56.359Z,101019.72
2023-07-03T00:50:23.553Z,101024.34
2023-07-03T00:52:56.029Z,101024.84
2023-07-03T00:55:23.395Z,101027.84
2023-07-03T00:57:52.193Z,101025.72
2023-07-03T01:00:27.804Z,101029.34
2023-07-03T01:03:21.611Z,101018.03
2023-07-03T01:05:51.468Z,101025.34
2023-07-03T01:08:18.880Z,101019.94
2023-07-03T01:10:46.459Z,101025.84
2023-07-03T01:13:17.524Z,101022.75
2023-07-03T01:15:45.805Z,101016.84
2023-07-03T01:18:13.735Z,101021.28
2023-07-03T01:20:46.707Z,101018.97
2023-07-03T01:23:19.080Z,101020.06
2023-07-03T01:25:48.424Z,101017.97
2023-07-03T01:28:19.234Z,101015.66
2023-07-03T01:30:47.813Z,101011.06
2023-07-03T01:33:22.901Z,101009.22
2023-07-03T01:35:51.270Z,101011.63
2023-07-03T01:38:21.028Z,101017.56
2023-07-03T01:40:48.254Z,101011.63
2023-07-03T01:43:15.282Z,101010.63
2023-07-03T01:45:46.905Z,101006.31
2023-07-03T01:48:14.074Z,101000.63
2023-07-03T01:50:41.555Z,100998.53
2023-07-03T01:53:41.964Z,100999.94
2023-07-03T01:56:22.947Z,100998.22
2023-07-03T01:58:52.949Z,101007.22
2023-07-03T02:01:28.326Z,101006.44
2023-07-03T02:04:11.965Z,101002.91
2023-07-03T02:06:43.064Z,101004.53
2023-07-03T02:09:10.913Z,101000.72
2023-07-03T02:11:37.609Z,101006.72
2023-07-03T02:14:04.423Z,101003.50
2023-07-03T02:16:31.221Z,100988.50
2023-07-03T02:18:59.966Z,101007.94
2023-07-03T02:21:28.562Z,101005.50
2023-07-03T02:23:55.381Z,101007.94
2023-07-03T02:26:22.026Z,101010.63
2023-07-03T02:28:48.555Z,101011.41
2023-07-03T02:31:15.240Z,101006.53
2023-07-03T02:33:41.973Z,101006.53
2023-07-03T02:36:08.509Z,101008.13
2023-07-03T02:38:35.085Z,100997.91
2023-07-03T02:41:03.177Z,101001.19
2023-07-03T02:43:33.055Z,100999.59
2023-07-03T02:46:04.621Z,101000.22
2023-07-03T02:48:31.458Z,100997.78
2023-07-03T02:50:58.376Z,101001.00
2023-07-03T02:53:24.936Z,100997.22
2023-07-03T02:55:54.765Z,100995.59
2023-07-03T02:58:23.537Z,100996.41
2023-07-03T03:00:50.245Z,100998.09
2023-07-03T03:03:17.024Z,100992.41
2023-07-03T03:05:43.720Z,100997.22
2023-07-03T03:08:12.446Z,100994.19
2023-07-03T03:10:39.393Z,100999.59
2023-07-03T03:13:06.299Z,100999.13
2023-07-03T03:15:36.088Z,100998.09
2023-07-03T03:18:06.069Z,100989.00
2023-07-03T03:20:33.138Z,100990.59
2023-07-03T03:22:59.901Z,100989.19
2023-07-03T03:25:26.594Z,100992.19
2023-07-03T03:27:53.131Z,100993.81
2023-07-03T03:30:19.766Z,100989.50
2023-07-03T03:32:47.943Z,100999.72
2023-07-03T03:35:14.773Z,100997.78
2023-07-03T03:37:41.464Z,100993.81
2023-07-03T03:40:10.272Z,100998.63
2023-07-03T03:42:37.859Z,100987.81
2023-07-03T03:45:05.483Z,100988.91
2023-07-03T03:47:32.098Z,100988.09
2023-07-03T03:49:58.725Z,100986.78
2023-07-03T03:54:52.310Z,100987.50
2023-07-03T03:57:19.231Z,100988.31
2023-07-03T03:59:45.854Z,100976.09
2023-07-03T04:02:15.903Z,100981.81
2023-07-03T04:04:42.737Z,100995.00
2023-07-03T04:07:10.593Z,100994.69
2023-07-03T04:09:37.228Z,100993.91
2023-07-03T04:12:04.003Z,101001.91
2023-07-03T04:14:32.012Z,101006.00
2023-07-03T04:16:59.454Z,101007.13
2023-07-03T04:19:29.030Z,101012.25
2023-07-03T04:21:55.627Z,101012.72
2023-07-03T04:24:22.763Z,101016.53
2023-07-03T04:26:49.553Z,101015.41
2023-07-03T04:29:16.110Z,101018.63
2023-07-03T04:31:42.709Z,101023.25
2023-07-03T04:34:09.279Z,101022.66
2023-07-03T04:36:35.794Z,101022.03
2023-07-03T04:39:02.496Z,101024.66
2023-07-03T04:41:29.203Z,101022.53
2023-07-03T04:43:59.249Z,101020.34
2023-07-03T04:46:27.972Z,101025.44
2023-07-03T04:49:01.653Z,101033.53
2023-07-03T04:51:32.139Z,101029.38
2023-07-03T04:54:00.922Z,101035.97
2023-07-03T04:56:28.907Z,101035.69
2023-07-03T04:58:55.418Z,101033.00
2023-07-03T05:01:22.323Z,101026.16
2023-07-03T05:03:49.073Z,101034.28
2023-07-03T05:06:15.735Z,101033.69
2023-07-03T05:08:42.416Z,101030.25
2023-07-03T05:11:09.198Z,101036.50
2023-07-03T05:13:35.858Z,101032.38
2023-07-03T05:16:02.646Z,101041.28
2023-07-03T05:18:29.561Z,101040.06
2023-07-03T05:20:56.274Z,101047.28
2023-07-03T05:23:23.091Z,101042.06
2023-07-03T05:25:49.954Z,101040.53
2023-07-03T05:28:16.905Z,101047.88
2023-07-03T05:30:43.480Z,101048.66
2023-07-03T05:33:12.133Z,101052.38
2023-07-03T05:35:48.714Z,101044.25
2023-07-03T05:38:16.996Z,101048.06
2023-07-03T05:40:43.565Z,101050.16
2023-07-03T05:43:10.330Z,101052.97
2023-07-03T05:45:37.008Z,101058.00
2023-07-03T05:48:03.696Z,101055.19
2023-07-03T05:50:30.351Z,101044.72
2023-07-03T05:52:56.912Z,101051.81
2023-07-03T05:55:23.674Z,101048.72
2023-07-03T05:57:50.320Z,101047.59
2023-07-03T06:00:17.441Z,101054.50
2023-07-03T06:02:45.355Z,101064.41
2023-07-03T06:05:13.296Z,101063.09
2023-07-03T06:07:40.765Z,101059.78
2023-07-03T06:10:09.156Z,101059.34
2023-07-03T06:12:35.746Z,101053.16
2023-07-03T06:15:02.534Z,101055.03
2023-07-03T06:17:30.586Z,101058.38
2023-07-03T06:19:57.313Z,101070.50
2023-07-03T06:22:24.279Z,101067.78
2023-07-03T06:24:51.219Z,101067.31
2023-07-03T06:27:18.361Z,101068.59
2023-07-03T06:29:46.054Z,101071.69
2023-07-03T06:32:12.713Z,101078.31
2023-07-03T06:34:40.842Z,101071.59
2023-07-03T06:37:08.900Z,101073.88
2023-07-03T06:39:39.064Z,101068.97
2023-07-03T06:42:06.505Z,101072.63
2023-07-03T06:44:33.105Z,101070.13
2023-07-03T06:46:59.889Z,101064.34
2023-07-03T06:49:26.859Z,101062.16
2023-07-03T06:51:53.578Z,101059.75
2023-07-03T06:54:20.673Z,101068.28
2023-07-03T06:56:48.272Z,101069.28
2023-07-03T06:59:14.927Z,101073.75
2023-07-03T07:01:42.399Z,101070.75
2023-07-03T07:04:12.053Z,101082.25
2023-07-03T07:06:40.295Z,101064.97
2023-07-03T07:09:06.985Z,101069.16
2023-07-03T07:11:35.929Z,101066.75
2023-07-03T07:14:04.290Z,101069.31
2023-07-03T07:16:35.569Z,101066.78
2023-07-03T07:19:06.772Z,101069.78
2023-07-03T07:21:36.030Z,101064.63
2023-07-03T07:24:23.924Z,101070.16
2023-07-03T07:26:59.356Z,101082.34
2023-07-03T07:29:26.584Z,101070.56
2023-07-03T07:31:57.756Z,101086.25
2023-07-03T07:34:25.287Z,101088.84
2023-07-03T07:36:52.330Z,101080.19
2023-07-03T07:39:21.389Z,101078.75
2023-07-03T07:41:48.800Z,101079.06
2023-07-03T07:44:15.318Z,101074.75
2023-07-03T07:46:42.137Z,101081.78
2023-07-03T07:49:09.980Z,101086.09
2023-07-03T07:51:37.598Z,101082.44
2023-07-03T07:54:06.447Z,101085.78
2023-07-03T07:56:34.450Z,101096.94
2023-07-03T07:59:01.613Z,101088.97
2023-07-03T08:01:28.427Z,101091.31
2023-07-03T08:03:55.379Z,101094.81
2023-07-03T08:06:22.258Z,101096.22
2023-07-03T08:08:51.050Z,101089.44
2023-07-03T08:11:17.605Z,101081.13
2023-07-03T08:13:44.140Z,101087.13
2023-07-03T08:16:11.880Z,101087.44
2023-07-03T08:18:39.030Z,101080.84
2023-07-03T08:21:05.791Z,101079.13
2023-07-03T08:23:32.466Z,101086.56
2023-07-03T08:26:00.283Z,101100.63
2023-07-03T08:28:27.214Z,101094.06
2023-07-03T08:30:53.997Z,101097.25
2023-07-03T08:33:20.846Z,101094.72
2023-07-03T08:38:21.052Z,101100.44
2023-07-03T08:40:48.351Z,101105.69
2023-07-03T08:43:22.693Z,101109.34
2023-07-03T08:45:52.220Z,101109.69
2023-07-03T08:48:25.383Z,101118.94
2023-07-03T08:50:55.870Z,101110.31
2023-07-03T08:53:28.540Z,101113.47
2023-07-03T08:56:36.878Z,101123.72
2023-07-03T08:59:05.528Z,101120.03
2023-07-03T09:01:49.534Z,101103.47
2023-07-03T09:04:42.331Z,101109.13
2023-07-03T09:07:14.821Z,101109.41
2023-07-03T09:09:58.622Z,101112.31
2023-07-03T09:13:06.310Z,101120.13
2023-07-03T09:15:46.516Z,101124.25
2023-07-03T09:18:18.811Z,101117.06
2023-07-03T09:20:46.679Z,101115.66
2023-07-03T09:23:29.881Z,101116.78
2023-07-03T09:26:05.233Z,101131.66
2023-07-03T09:28:38.558Z,101117.06
2023-07-03T09:31:05.516Z,101129.63
2023-07-03T09:33:32.377Z,101117.56
2023-07-03T09:36:20.022Z,101114.59
2023-07-03T09:38:48.555Z,101110.72
2023-07-03T09:41:25.201Z,101130.72
2023-07-03T09:43:51.819Z,101129.59
2023-07-03T09:46:20.923Z,101129.03
2023-07-03T09:48:48.013Z,101133.59
2023-07-03T09:51:24.306Z,101128.72
2023-07-03T09:53:51.610Z,101120.88
2023-07-03T09:56:22.833Z,101134.59
2023-07-03T09:58:52.369Z,101139.25
2023-07-03T10:06:42.993Z,101137.69
2023-07-03T10:12:03.872Z,101148.19
2023-07-03T10:14:53.684Z,101159.09
2023-07-03T10:17:31.644Z,101151.28
2023-07-03T10:20:04.968Z,101148.72
2023-07-03T10:22:32.772Z,101142.78
2023-07-03T10:25:03.617Z,101151.19
2023-07-03T10:27:31.463Z,101144.72
2023-07-03T10:30:00.268Z,101160.16
2023-07-03T10:32:34.464Z,101151.16
2023-07-03T10:35:11.751Z,101147.41
2023-07-03T10:38:12.223Z,101158.41
2023-07-03T10:40:59.323Z,101145.22
2023-07-03T10:43:29.923Z,101147.28
2023-07-03T10:45:58.364Z,101160.75
2023-07-03T10:48:29.998Z,101155.59
2023-07-03T10:51:05.920Z,101164.00
2023-07-03T10:53:45.856Z,101161.59
2023-07-03T10:56:42.811Z,101169.22
2023-07-03T10:59:16.380Z,101162.75
2023-07-03T11:02:03.822Z,101165.84
2023-07-03T11:04:56.550Z,101159.16
2023-07-03T11:07:48.572Z,101168.25
2023-07-03T11:10:45.203Z,101170.00
2023-07-03T11:13:18.161Z,101178.09
2023-07-03T11:15:54.083Z,101168.78
2023-07-03T11:24:01.924Z,101172.22
2023-07-03T11:29:13.027Z,101176.69
2023-07-03T11:31:43.760Z,101167.53
2023-07-03T11:44:32.217Z,101152.06
2023-07-03T11:47:00.538Z,101160.44
2023-07-03T11:49:38.741Z,101167.88
2023-07-03T11:52:07.593Z,101147.06
2023-07-03T11:54:37.130Z,101139.09
2023-07-03T11:57:07.939Z,101145.94
2023-07-03T11:59:44.029Z,101155.34
2023-07-03T12:02:16.777Z,101155.56
2023-07-03T12:04:49.481Z,101140.69
2023-07-03T12:07:19.982Z,101169.72
2023-07-03T12:09:47.764Z,101176.00
2023-07-03T12:12:29.600Z,101164.22
2023-07-03T12:14:58.796Z,101169.97
2023-07-03T12:17:33.973Z,101168.06
2023-07-03T12:20:08.418Z,101176.06
2023-07-03T12:22:41.163Z,101178.59
2023-07-03T12:25:20.302Z,101170.69
2023-07-03T12:27:48.587Z,101168.25
2023-07-03T12:30:22.823Z,101172.28
2023-07-03T12:32:50.114Z,101172.72
2023-07-03T12:35:23.344Z,101166.31
2023-07-03T12:37:52.852Z,101178.13
2023-07-03T12:40:20.995Z,101175.22
2023-07-03T12:42:49.293Z,101179.25
2023-07-03T12:45:20.534Z,101173.50
2023-07-03T12:48:10.092Z,101159.56
2023-07-03T12:50:46.485Z,101169.69
2023-07-03T12:53:13.905Z,101182.31
2023-07-03T12:55:42.529Z,101169.34
2023-07-03T12:58:12.892Z,101163.09
2023-07-03T13:00:39.898Z,101164.22
2023-07-03T13:03:09.068Z,101169.06
2023-07-03T13:05:37.522Z,101178.72
2023-07-03T13:08:11.084Z,101182.75
2023-07-03T13:10:38.011Z,101176.50
2023-07-03T13:13:18.346Z,101183.47
2023-07-03T13:15:46.141Z,101173.25
2023-07-03T13:18:14.726Z,101174.66
2023-07-03T13:20:53.892Z,101171.06
2023-07-03T13:23:36.143Z,101170.56
2023-07-03T13:26:07.305Z,101171.41
2023-07-03T13:28:37.495Z,101166.75
2023-07-03T13:31:04.144Z,101177.47
2023-07-03T13:33:30.880Z,101173.94
2023-07-03T13:35:57.629Z,101168.06
2023-07-03T13:38:24.450Z,101181.81
2023-07-03T13:40:53.540Z,101174.00
2023-07-03T13:43:23.088Z,101193.53
2023-07-03T13:45:51.800Z,101194.00
2023-07-03T13:48:19.569Z,101200.06
2023-07-03T13:50:47.057Z,101205.59
2023-07-03T13:53:13.650Z,101203.97
2023-07-03T13:55:40.886Z,101202.22
2023-07-03T13:58:07.617Z,101218.47
2023-07-03T14:00:35.730Z,101212.09
2023-07-03T14:03:02.745Z,101199.00
2023-07-03T14:05:29.476Z,101196.22
2023-07-03T14:07:58.997Z,101195.03
2023-07-03T14:10:26.329Z,101183.97
2023-07-03T14:12:53.821Z,101179.44
2023-07-03T14:15:26.898Z,101193.78
2023-07-03T14:17:54.319Z,101185.56
2023-07-03T14:20:22.782Z,101188.13
2023-07-03T14:22:49.604Z,101173.09
2023-07-03T14:25:17.555Z,101182.09
2023-07-03T14:27:44.420Z,101174.06
2023-07-03T14:30:12.758Z,101170.38
2023-07-03T14:32:53.113Z,101162.25
2023-07-03T14:35:23.895Z,101156.28
2023-07-03T14:37:50.728Z,101153.41
2023-07-03T14:40:17.736Z,101164.63
2023-07-03T14:42:45.302Z,101159.56
2023-07-03T14:45:12.736Z,101162.97
2023-07-03T14:47:41.668Z,101159.00
2023-07-03T14:50:12.870Z,101158.38
2023-07-03T14:52:44.920Z,101162.19
2023-07-03T14:55:13.604Z,101158.50
2023-07-03T14:57:40.895Z,101162.03
2023-07-03T15:00:09.916Z,101163.94
2023-07-03T15:02:38.733Z,101168.41
2023-07-03T15:05:05.857Z,101166.34
2023-07-03T15:07:32.558Z,101162.84
2023-07-03T15:09:59.222Z,101162.66
2023-07-03T15:12:25.820Z,101160.06
2023-07-03T15:14:55.705Z,101156.06
2023-07-03T15:17:22.274Z,101150.97
2023-07-03T15:19:48.876Z,101144.63
2023-07-03T15:22:16.816Z,101138.81
2023-07-03T15:24:44.007Z,101134.63
2023-07-03T15:27:11.513Z,101137.19
2023-07-03T15:29:38.070Z,101142.56
2023-07-03T15:32:04.955Z,101139.84
2023-07-03T15:34:31.565Z,101133.16
2023-07-03T15:36:58.980Z,101146.53
2023-07-03T15:39:26.737Z,101138.38
2023-07-03T15:41:53.651Z,101139.47
2023-07-03T15:44:21.217Z,101122.25
2023-07-03T15:46:50.416Z,101121.25
2023-07-03T15:49:17.217Z,101134.59
2023-07-03T15:51:44.706Z,101126.38
2023-07-03T15:54:11.339Z,101149.50
2023-07-03T15:56:38.126Z,101135.22
2023-07-03T15:59:05.295Z,101132.31
2023-07-03T16:01:31.893Z,101125.84
2023-07-03T16:04:02.358Z,101136.44
2023-07-03T16:06:34.988Z,101119.75
2023-07-03T16:09:02.536Z,101126.56
2023-07-03T16:11:29.908Z,101122.53
2023-07-03T16:13:59.874Z,101119.16
2023-07-03T16:16:28.614Z,101113.34
2023-07-03T16:19:00.814Z,101111.47
2023-07-03T16:21:30.949Z,101100.00
2023-07-03T16:23:58.934Z,101108.19
2023-07-03T16:26:26.951Z,101103.03
2023-07-03T16:28:54.568Z,101100.50
2023-07-03T16:31:23.790Z,101096.19
2023-07-03T16:33:52.186Z,101094.94
2023-07-03T16:36:24.344Z,101082.47
2023-07-03T16:38:53.313Z,101085.81
2023-07-03T16:41:21.526Z,101087.31
2023-07-03T16:43:50.223Z,101082.75
2023-07-03T16:46:19.976Z,101077.94
2023-07-03T16:48:49.027Z,101072.63
2023-07-03T16:51:18.236Z,101058.78
2023-07-03T16:53:45.876Z,101063.19
2023-07-03T16:56:13.825Z,101065.50
2023-07-03T16:58:44.226Z,101057.84
2023-07-03T17:01:12.158Z,101063.66
2023-07-03T17:03:39.024Z,101062.81
2023-07-03T17:06:13.783Z,101061.19
2023-07-03T17:08:40.322Z,101056.88
2023-07-03T17:11:06.981Z,101056.31
2023-07-03T17:13:33.643Z,101063.63
2023-07-03T17:16:00.418Z,101062.69
2023-07-03T17:18:27.066Z,101052.25
2023-07-03T17:20:53.638Z,101042.75
2023-07-03T17:23:20.258Z,101047.47
2023-07-03T17:25:46.994Z,101049.66
2023-07-03T17:28:13.742Z,101039.41
2023-07-03T17:30:40.677Z,101033.59
2023-07-03T17:33:08.548Z,101039.19
2023-07-03T17:35:35.933Z,101035.44
2023-07-03T17:38:02.634Z,101037.47
2023-07-03T17:40:29.276Z,101029.97
2023-07-03T17:42:55.802Z,101039.06
2023-07-03T17:45:22.375Z,101026.03
2023-07-03T17:47:49.144Z,101023.97
2023-07-03T17:50:15.858Z,101023.00
2023-07-03T17:52:42.794Z,101013.19
2023-07-03T17:55:09.715Z,101012.72
2023-07-03T17:57:36.335Z,101009.13
2023-07-03T18:00:03.809Z,101019.22
2023-07-03T18:02:30.736Z,101004.19
2023-07-03T18:04:57.541Z,101005.00
2023-07-03T18:07:24.299Z,100999.25
2023-07-03T18:09:51.042Z,100993.66
2023-07-03T18:12:17.820Z,101004.41
2023-07-03T18:14:44.391Z,100997.06
2023-07-03T18:17:12.040Z,100998.88
2023-07-03T18:19:38.903Z,100994.91
2023-07-03T18:22:05.466Z,100989.97
2023-07-03T18:24:32.101Z,100992.38
2023-07-03T18:26:58.790Z,100990.03
2023-07-03T18:29:25.501Z,100985.56
2023-07-03T18:31:52.326Z,100990.22
2023-07-03T18:34:19.086Z,100987.34
2023-07-03T18:36:45.673Z,100991.97
2023-07-03T18:39:12.362Z,100998.22
2023-07-03T18:41:39.090Z,100991.84
2023-07-03T18:44:07.204Z,100989.75
2023-07-03T18:46:34.131Z,100982.09
2023-07-03T18:49:00.926Z,100996.16
2023-07-03T18:51:27.659Z,101009.41
2023-07-03T18:53:54.662Z,101007.66
2023-07-03T18:56:22.768Z,101012.94
2023-07-03T18:58:53.089Z,101010.84
2023-07-03T19:01:20.451Z,101011.47
2023-07-03T19:03:47.233Z,101011.19
2023-07-03T19:06:16.730Z,101020.44
2023-07-03T19:08:43.740Z,101025.09
2023-07-03T19:11:10.752Z,101025.06
2023-07-03T19:13:38.075Z,101022.34
2023-07-03T19:16:06.802Z,101019.94
2023-07-03T19:18:35.160Z,101025.16
2023-07-03T19:21:01.741Z,101011.84
2023-07-03T19:23:28.345Z,101031.25
2023-07-03T19:25:56.977Z,101032.13
2023-07-03T19:28:24.831Z,101050.41
2023-07-03T19:31:02.933Z,101060.50
2023-07-03T19:33:30.875Z,101066.72
2023-07-03T19:36:00.464Z,101074.94
2023-07-03T19:38:28.002Z,101076.13
2023-07-03T19:40:54.743Z,101091.56
2023-07-03T19:43:21.445Z,101096.47
2023-07-03T19:45:48.095Z,101091.19
2023-07-03T19:48:14.834Z,101093.13
2023-07-03T19:50:42.775Z,101091.94
2023-07-03T19:53:10.802Z,101092.84
2023-07-03T19:55:38.902Z,101093.31
2023-07-03T19:58:05.819Z,101091.75
2023-07-03T20:00:32.954Z,101074.34
2023-07-03T20:03:00.431Z,101071.28
2023-07-03T20:05:26.980Z,101071.94
2023-07-03T20:07:53.480Z,101075.72
2023-07-03T20:10:20.358Z,101076.59
2023-07-03T20:12:51.762Z,101077.75
2023-07-03T20:15:20.881Z,101067.81
2023-07-03T20:17:48.033Z,101068.66
2023-07-03T20:20:15.664Z,101065.22
2023-07-03T20:22:45.991Z,101070.81
2023-07-03T20:25:12.926Z,101067.09
2023-07-03T20:27:39.658Z,101070.59
2023-07-03T20:30:07.580Z,101072.47
2023-07-03T20:32:35.598Z,101071.97
2023-07-03T20:35:03.109Z,101072.78
2023-07-03T20:37:29.683Z,101074.91
2023-07-03T20:39:58.982Z,101098.47
2023-07-03T20:42:26.036Z,101106.25
2023-07-03T20:44:54.776Z,101113.00
2023-07-03T20:47:21.981Z,101107.88
2023-07-03T20:49:48.935Z,101101.63
2023-07-03T20:52:17.443Z,101096.97
2023-07-03T20:54:54.474Z,101101.03
2023-07-03T20:57:20.988Z,101100.25
2023-07-03T20:59:51.501Z,101102.13
2023-07-03T21:02:19.179Z,101095.94
2023-07-03T21:04:45.734Z,101089.75
2023-07-03T21:07:12.271Z,101098.91
2023-07-03T21:09:38.975Z,101100.00
2023-07-03T21:12:07.582Z,101095.94
2023-07-03T21:14:34.194Z,101091.34
2023-07-03T21:17:00.729Z,101087.34
2023-07-03T21:19:27.414Z,101104.91
2023-07-03T21:21:55.070Z,101104.38
2023-07-03T21:24:22.503Z,101106.25
2023-07-03T21:26:50.533Z,101102.47
2023-07-03T21:29:17.098Z,101106.25
2023-07-03T21:31:43.809Z,101092.38
2023-07-03T21:34:13.113Z,101101.81
2023-07-03T21:36:40.126Z,101091.84
2023-07-03T21:39:07.251Z,101097.50
2023-07-03T21:41:36.137Z,101106.38
2023-07-03T21:44:11.386Z,101110.91
2023-07-03T21:46:38.141Z,101117.69
2023-07-03T21:49:05.914Z,101108.78
2023-07-03T21:51:32.580Z,101124.47
2023-07-03T21:53:59.378Z,101114.75
2023-07-03T21:56:29.533Z,101125.66
2023-07-03T21:59:04.862Z,101125.47
2023-07-03T22:01:38.711Z,101115.00
2023-07-03T22:04:07.361Z,101106.97
2023-07-03T22:06:34.228Z,101110.88
2023-07-03T22:09:00.800Z,101114.16
2023-07-03T22:11:28.675Z,101119.34
2023-07-03T22:13:55.962Z,101118.25
2023-07-03T22:16:22.727Z,101111.25
2023-07-03T22:18:50.348Z,101107.84
2023-07-03T22:21:18.891Z,101115.44
2023-07-03T22:23:50.023Z,101113.59
2023-07-03T22:26:17.244Z,101111.44
2023-07-03T22:28:44.009Z,101106.34
2023-07-03T22:31:12.213Z,101113.84
2023-07-03T22:33:39.455Z,101111.78
2023-07-03T22:36:08.595Z,101118.53
2023-07-03T22:38:35.314Z,101113.44
2023-07-03T22:41:02.187Z,101115.06
2023-07-03T22:43:31.625Z,101112.91
2023-07-03T22:46:03.220Z,101109.13
2023-07-03T22:48:30.848Z,101115.31
2023-07-03T22:50:57.498Z,101117.44
2023-07-03T22:53:24.084Z,101116.66
2023-07-03T22:55:50.946Z,101120.69
2023-07-03T22:58:17.730Z,101121.50
2023-07-03T23:00:44.301Z,101130.13
2023-07-03T23:03:11.097Z,101124.47
2023-07-03T23:05:47.954Z,101119.66
2023-07-03T23:08:16.252Z,101127.69
2023-07-03T23:10:51.364Z,101123.38
2023-07-03T23:13:19.199Z,101130.13
2023-07-03T23:15:57.104Z,101132.28
2023-07-03T23:18:24.382Z,101132.28
2023-07-03T23:21:02.123Z,101126.06
2023-07-03T23:23:32.198Z,101137.66
2023-07-03T23:26:05.464Z,101133.84
2023-07-03T23:28:35.879Z,101136.00
2023-07-03T23:31:08.623Z,101133.28
2023-07-03T23:33:35.546Z,101135.97
2023-07-03T23:36:14.397Z,101143.75
2023-07-03T23:38:42.888Z,101146.19
2023-07-03T23:41:11.787Z,101137.84
2023-07-03T23:43:39.868Z,101130.28
2023-07-03T23:46:09.081Z,101134.59
2023-07-03T23:48:37.110Z,101132.13
2023-07-03T23:51:06.127Z,101135.91
2023-07-03T23:53:34.190Z,101132.69
2023-07-03T23:56:06.975Z,101136.19
2023-07-03T23:58:35.384Z,101135.13
